Batesville, Arkansas
Current Conditions -  °F | °C
As of 12:56 PM on Friday 24 Oct 2014 (Local Time) from KM19 Reporting Station
Broken Clouds Broken Clouds  
Wind Chill: 22°   Ceiling: 3900
Heat Index: 22°   Visibility: 10mi
Dew Point: 11°   Wind: 5mph
Humidity: 51%   Direction: 250°WSW
Pressure: 30.15"   Gusts: NA
Location:  35.77°N, 91.65°W
Report Text: KM19 241756Z AUTO 25004KT 10SM BKN039 22/11 A3015 RMK AO2 58009 T02160111 10216 20066 SLP207
Loading
Personal Weather Stations






























Interactive Weather Map
Tropical Storm Tracking
New forecast layout! Learn more

10-Day Weather Forecast

Advertisements
Track Severe Weather on mobile